»·PEaware :: TEXAN22 KRND-KRND

TEXAN22 :: KRND-KRND

FLIGHT INFORMATION

Flight Status: Arrived
Operator: Unknown
More flights by this operator :: More flights under this callsign
Pilot: Indie I. (23343)
Aircraft: BEECH AIRCRAFT T-6A TEXAN
(TEX2)
More flights by this aircraft type
Origin: KRND Randolph AFB
United States
Destination: KRND Randolph AFB
United States
More flights between these airports :: More routes between these airports
Route: SR287
File this flight plan on PilotEdge
Remarks: sr287 vfr
Altitude:
(Current/Filed)
3,500ft
Speed:
(Current/Filed)
210kts
Departed: 13-May-20 11:54 AM
Arrived: 13-May-20 12:47 PM
Distance/Time
Traveled:
0nm/0:53
Distance/Time
To Go:
Arrived

Flight Plot

Page will automatically refresh every two minutes.

Flight plan parsing failed; only flown route is shown


Map Options




Map Legend


Flown Route
Filed Route
Departure Airport
Arrival Airport
Navaid (VOR, NDB)
Fix

Horizontal Profiles

Position Reports

Time Latitude Longitude Heading Altitude Ground
Speed
13-May-20 11:33 29.534610 -98.290619 82 765ft 2kts
13-May-20 11:34 29.534806 -98.290082 263 765ft 0kts
13-May-20 11:35 29.534805 -98.290085 263 765ft 0kts
13-May-20 11:36 29.534805 -98.290087 263 765ft 0kts
13-May-20 11:37 29.534805 -98.290089 263 765ft 0kts
13-May-20 11:38 29.534805 -98.290092 263 765ft 0kts
13-May-20 11:39 29.534804 -98.290094 263 765ft 0kts
13-May-20 11:40 29.534804 -98.290096 263 765ft 0kts
13-May-20 11:41 29.534804 -98.290098 263 765ft 0kts
13-May-20 11:42 29.534804 -98.290101 263 765ft 0kts
13-May-20 11:43 29.534803 -98.290103 263 765ft 0kts
13-May-20 11:44 29.534803 -98.290106 263 765ft 0kts
13-May-20 11:45 29.534803 -98.290108 263 765ft 0kts
13-May-20 11:46 29.534803 -98.290111 263 765ft 0kts
13-May-20 11:47 29.534802 -98.290113 263 765ft 0kts
13-May-20 11:48 29.534802 -98.290116 263 765ft 0kts
13-May-20 11:49 29.534802 -98.290119 263 765ft 0kts
13-May-20 11:50 29.534802 -98.290121 263 765ft 0kts
13-May-20 11:51 29.534801 -98.290124 263 765ft 0kts
13-May-20 11:52 29.534672 -98.291684 277 765ft 0kts
13-May-20 11:53 29.531170 -98.290600 146 765ft 93kts
13-May-20 11:54 29.487348 -98.275448 177 2094ft 209kts
13-May-20 11:55 29.426640 -98.257827 167 3710ft 234kts
13-May-20 11:56 29.361089 -98.247040 173 3594ft 234kts
13-May-20 11:57 29.305007 -98.224922 163 3599ft 208kts
13-May-20 11:58 29.243738 -98.207767 157 3344ft 240kts
13-May-20 11:59 29.186315 -98.171225 142 3516ft 219kts
13-May-20 12:00 29.157694 -98.123648 63 1767ft 181kts
13-May-20 12:01 29.157026 -98.143614 221 1357ft 193kts
13-May-20 12:02 29.107254 -98.176302 226 1008ft 221kts
13-May-20 12:03 29.066357 -98.228576 228 1169ft 213kts
13-May-20 12:04 29.026471 -98.278200 226 1093ft 208kts
13-May-20 12:05 28.988766 -98.328095 228 1104ft 204kts
13-May-20 12:06 28.950579 -98.376655 221 1088ft 205kts
13-May-20 12:07 28.911162 -98.423252 228 1551ft 217kts
13-May-20 12:08 28.853430 -98.430629 177 1150ft 196kts
13-May-20 12:09 28.802375 -98.428265 180 738ft 177kts
13-May-20 12:10 28.752988 -98.424839 177 891ft 190kts
13-May-20 12:11 28.697883 -98.420548 176 898ft 200kts
13-May-20 12:12 28.667582 -98.384397 83 1067ft 221kts
13-May-20 12:13 28.676023 -98.314093 81 907ft 227kts
13-May-20 12:14 28.686739 -98.247114 78 1217ft 222kts
13-May-20 12:15 28.695328 -98.179615 78 867ft 210kts
13-May-20 12:16 28.704968 -98.113741 76 968ft 214kts
13-May-20 12:17 28.724838 -98.051935 68 1742ft 200kts
13-May-20 12:18 28.747131 -97.990346 68 1603ft 208kts
13-May-20 12:19 28.771309 -97.930930 65 947ft 206kts
13-May-20 12:20 28.772614 -97.862718 90 921ft 214kts
13-May-20 12:21 28.770243 -97.795089 92 880ft 213kts
13-May-20 12:22 28.768615 -97.727298 90 902ft 215kts
13-May-20 12:23 28.769097 -97.659660 92 905ft 209kts
13-May-20 12:24 28.794023 -97.612866 1 882ft 204kts
13-May-20 12:25 28.849767 -97.610889 0 877ft 199kts
13-May-20 12:26 28.905259 -97.608002 3 1053ft 197kts
13-May-20 12:27 28.948682 -97.649744 310 1287ft 213kts
13-May-20 12:28 28.986232 -97.700137 309 1048ft 207kts
13-May-20 12:29 29.024574 -97.749293 311 995ft 209kts
13-May-20 12:30 29.062798 -97.798917 312 1295ft 212kts
13-May-20 12:31 29.100609 -97.851395 324 1045ft 216kts
13-May-20 12:32 29.149568 -97.891411 325 1080ft 214kts
13-May-20 12:33 29.196863 -97.929035 325 1202ft 198kts
13-May-20 12:34 29.237842 -97.972970 308 2266ft 192kts
13-May-20 12:35 29.271854 -98.025033 305 4649ft 221kts
13-May-20 12:36 29.309109 -98.083795 307 4793ft 223kts
13-May-20 12:37 29.346730 -98.140032 306 4417ft 216kts
13-May-20 12:38 29.387025 -98.180573 338 4693ft 203kts
13-May-20 12:39 29.415935 -98.226534 297 2439ft 175kts
13-May-20 12:40 29.439612 -98.276305 305 1508ft 178kts
13-May-20 12:41 29.471636 -98.324123 330 1955ft 216kts
13-May-20 12:42 29.531610 -98.330048 329 1762ft 216kts
13-May-20 12:43 29.562572 -98.311303 144 1878ft 215kts
13-May-20 12:44 29.522668 -98.288636 216 3226ft 140kts
13-May-20 12:45 29.537777 -98.300360 87 1267ft 127kts
13-May-20 12:46 29.526602 -98.286592 359 765ft 6kts

Navigation Log

Ident Type
Flight plan parsing failed, navigation log unavailable